Time;durP1;ratioP1;P1;durP2;ratioP2;P2;SDS_P1;SDS_P2;PMS_P1;PMS_P2;Temp;Humidity;BMP_temperature;BMP_pressure;BME280_temperature;BME280_humidity;BME280_pressure;Samples;Min_cycle;Max_cycle;Signal;HPM_P1;HPM_P2
2023/01/03 00:01:34;;;;;;;34.45;18.83;;;6.70;99.90;;;;;;4999046;28;20060;-80
2023/01/03 00:04:01;;;;;;;37.47;20.33;;;6.60;99.90;;;;;;5020755;28;20487;-76
2023/01/03 00:06:34;;;;;;;28.00;17.88;;;6.50;99.90;;;;;;5030242;28;20506;-82
2023/01/03 00:09:04;;;;;;;25.98;16.95;;;6.50;99.90;;;;;;5019894;28;20064;-81
2023/01/03 00:14:22;;;;;;;26.05;17.35;;;6.40;99.90;;;;;;5032329;28;20037;-81
2023/01/03 00:16:51;;;;;;;30.25;16.92;;;6.40;99.90;;;;;;5023516;28;20057;-81
2023/01/03 00:19:18;;;;;;;26.45;17.50;;;6.30;99.90;;;;;;5023502;28;20037;-80
2023/01/03 00:21:45;;;;;;;35.88;21.58;;;6.30;99.90;;;;;;5017591;28;20045;-81
2023/01/03 00:24:11;;;;;;;33.15;19.88;;;6.30;99.90;;;;;;5019614;28;20045;-80
2023/01/03 00:26:39;;;;;;;30.50;17.67;;;6.30;99.90;;;;;;5016640;28;20038;-80
2023/01/03 00:29:07;;;;;;;30.65;19.02;;;6.30;99.90;;;;;;5027446;28;20119;-80
2023/01/03 00:31:35;;;;;;;32.15;18.27;;;6.30;99.90;;;;;;5027779;28;20041;-82
2023/01/03 00:34:01;;;;;;;37.85;20.85;;;6.30;99.90;;;;;;5004232;28;20037;-79
2023/01/03 00:36:27;;;;;;;34.50;19.02;;;6.30;99.90;;;;;;5039933;28;20041;-82
2023/01/03 00:38:54;;;;;;;31.50;18.92;;;6.30;99.90;;;;;;5035925;28;20042;-79
2023/01/03 00:41:20;;;;;;;32.10;19.35;;;6.30;99.90;;;;;;5024369;28;20284;-79
2023/01/03 00:43:48;;;;;;;29.80;19.38;;;6.30;99.90;;;;;;5033163;28;20100;-78
2023/01/03 00:46:16;;;;;;;30.85;20.23;;;6.20;99.90;;;;;;5037850;28;20415;-81
2023/01/03 00:48:42;;;;;;;35.45;21.23;;;6.20;99.90;;;;;;5028286;28;20045;-82
2023/01/03 00:51:12;;;;;;;34.85;18.42;;;6.10;99.90;;;;;;5023746;28;20044;-81
2023/01/03 00:53:39;;;;;;;28.10;16.58;;;6.10;99.90;;;;;;5011165;28;20063;-82
2023/01/03 00:56:09;;;;;;;38.90;21.95;;;6.00;99.90;;;;;;5038267;28;20044;-82
2023/01/03 00:58:36;;;;;;;27.85;18.27;;;6.00;99.90;;;;;;5029999;28;20030;-82
2023/01/03 01:01:12;;;;;;;29.15;17.75;;;5.90;99.90;;;;;;5029228;28;20041;-80
2023/01/03 01:03:41;;;;;;;27.25;17.27;;;5.90;99.90;;;;;;5029561;28;20040;-82
2023/01/03 01:06:32;;;;;;;27.58;17.60;;;5.80;99.90;;;;;;5030471;28;20033;-79
2023/01/03 01:08:59;;;;;;;27.63;16.58;;;5.80;99.90;;;;;;5011300;28;20046;-79
2023/01/03 01:11:27;;;;;;;31.35;20.98;;;5.80;99.90;;;;;;5008682;28;20030;-77
2023/01/03 01:13:54;;;;;;;37.10;21.90;;;5.90;99.90;;;;;;5009314;28;20044;-82
2023/01/03 01:16:31;;;;;;;33.70;20.80;;;6.00;99.90;;;;;;5008797;28;20045;-81
2023/01/03 01:18:59;;;;;;;35.15;21.40;;;6.00;99.90;;;;;;5032283;28;20037;-81
2023/01/03 01:21:29;;;;;;;33.00;18.88;;;6.10;99.90;;;;;;5022287;28;20401;-82
2023/01/03 01:23:58;;;;;;;33.67;20.05;;;6.20;99.90;;;;;;5016955;28;20036;-79
2023/01/03 01:26:25;;;;;;;31.67;20.60;;;6.30;99.90;;;;;;5034738;28;20042;-79
2023/01/03 01:28:53;;;;;;;36.85;21.58;;;6.30;99.90;;;;;;5031776;28;20415;-81
2023/01/03 01:31:21;;;;;;;38.42;24.45;;;6.40;99.90;;;;;;5003896;28;20793;-82
2023/01/03 01:33:48;;;;;;;39.03;23.35;;;6.50;99.90;;;;;;5028391;28;20037;-80
2023/01/03 01:36:20;;;;;;;42.45;25.45;;;6.50;99.90;;;;;;5031254;28;20036;-79
2023/01/03 01:38:51;;;;;;;38.60;22.70;;;6.60;99.90;;;;;;5031553;28;20038;-81
2023/01/03 01:44:36;;;;;;;31.65;21.52;;;6.60;99.90;;;;;;5003793;28;21002;-80
2023/01/03 01:44:42;;;;;;;46.75;27.67;;;6.60;99.90;;;;;;5026636;28;20066;-80
2023/01/03 01:47:20;;;;;;;44.92;24.60;;;6.60;99.90;;;;;;5011341;28;20044;-81
2023/01/03 01:49:48;;;;;;;43.72;24.60;;;6.60;99.90;;;;;;5029144;28;20029;-81
2023/01/03 01:52:16;;;;;;;39.50;23.27;;;6.60;99.90;;;;;;5012110;28;20052;-80
2023/01/03 01:54:43;;;;;;;39.30;24.15;;;6.60;99.90;;;;;;5040367;28;20020;-79
2023/01/03 01:57:14;;;;;;;40.15;24.70;;;6.50;99.90;;;;;;5012442;28;20041;-81
2023/01/03 01:59:41;;;;;;;44.80;26.88;;;6.60;99.90;;;;;;5010243;28;20041;-79
2023/01/03 02:02:08;;;;;;;45.45;26.10;;;6.60;99.90;;;;;;5010942;28;20048;-82
2023/01/03 02:04:38;;;;;;;63.03;32.35;;;6.60;99.90;;;;;;5029969;28;20380;-80
2023/01/03 02:07:05;;;;;;;45.90;25.42;;;6.60;99.90;;;;;;5007250;28;20415;-82
2023/01/03 02:09:33;;;;;;;39.33;24.55;;;6.70;99.90;;;;;;5026788;28;20033;-78
2023/01/03 02:15:16;;;;;;;45.88;28.30;;;6.70;99.90;;;;;;5030389;28;20040;-82
2023/01/03 02:18:12;;;;;;;42.47;25.20;;;6.70;99.90;;;;;;5010820;28;20504;-82
2023/01/03 02:20:42;;;;;;;44.60;25.35;;;6.80;99.90;;;;;;5020645;28;20041;-80
2023/01/03 02:23:47;;;;;;;51.45;30.15;;;6.80;99.90;;;;;;5026927;28;20044;-80
2023/01/03 02:26:22;;;;;;;50.33;31.27;;;6.80;99.90;;;;;;5003577;28;20540;-81
2023/01/03 02:29:14;;;;;;;53.35;30.02;;;6.70;99.90;;;;;;5029285;28;20033;-82
2023/01/03 02:31:44;;;;;;;56.78;32.70;;;6.70;99.90;;;;;;5031641;28;20045;-81
2023/01/03 02:34:26;;;;;;;53.22;30.38;;;6.70;99.90;;;;;;5025626;28;20507;-79
2023/01/03 02:37:06;;;;;;;55.25;29.33;;;6.60;99.90;;;;;;5013236;28;20044;-82
2023/01/03 02:40:03;;;;;;;51.60;27.48;;;6.60;99.90;;;;;;5006005;28;20412;-80
2023/01/03 02:43:04;;;;;;;46.13;29.55;;;6.60;99.90;;;;;;5027788;28;20025;-78
2023/01/03 02:45:42;;;;;;;54.50;28.67;;;6.70;99.90;;;;;;5030774;28;20487;-82
2023/01/03 02:48:14;;;;;;;46.85;28.67;;;6.70;99.90;;;;;;5002099;28;20044;-77
2023/01/03 02:50:52;;;;;;;45.95;27.67;;;6.70;99.90;;;;;;5005189;28;20045;-80
2023/01/03 02:53:26;;;;;;;44.67;27.48;;;6.80;99.90;;;;;;5037746;28;20490;-80
2023/01/03 02:55:57;;;;;;;69.18;37.42;;;6.80;99.90;;;;;;5010367;28;20451;-82
2023/01/03 02:58:30;;;;;;;52.45;31.67;;;6.80;99.90;;;;;;5015360;28;20030;-78
2023/01/03 03:00:58;;;;;;;52.75;31.98;;;6.80;99.90;;;;;;5019681;28;20044;-79
2023/01/03 03:03:29;;;;;;;56.90;33.55;;;6.80;99.90;;;;;;5029293;28;20045;-80
2023/01/03 03:06:17;;;;;;;64.63;36.00;;;6.80;99.90;;;;;;5032684;28;20021;-77
2023/01/03 03:08:45;;;;;;;66.18;36.83;;;6.80;99.90;;;;;;5032827;28;20050;-81
2023/01/03 03:14:21;;;;;;;53.80;33.28;;;6.80;99.90;;;;;;5032873;28;20409;-80
2023/01/03 03:16:50;;;;;;;66.28;38.25;;;6.80;99.90;;;;;;5015770;28;20049;-82
2023/01/03 03:25:11;;;;;;;56.28;33.85;;;6.80;99.90;;;;;;5032451;28;20428;-82
2023/01/03 03:30:30;;;;;;;56.92;34.47;;;6.90;99.90;;;;;;5027396;28;20376;-82
2023/01/03 03:33:04;;;;;;;59.90;35.72;;;6.90;99.90;;;;;;5012042;28;20041;-78
2023/01/03 03:35:36;;;;;;;59.47;35.65;;;6.90;99.90;;;;;;5032961;28;20033;-81
2023/01/03 03:38:07;;;;;;;63.35;37.30;;;6.90;99.90;;;;;;5033153;28;20037;-77
2023/01/03 03:46:30;;;;;;;61.40;35.22;;;6.80;99.90;;;;;;5037662;28;20036;-81
2023/01/03 03:51:56;;;;;;;53.70;32.72;;;6.80;99.90;;;;;;5031858;28;20051;-80
2023/01/03 03:54:24;;;;;;;47.10;29.05;;;6.90;99.90;;;;;;5019844;28;20049;-79
2023/01/03 03:57:03;;;;;;;61.10;36.75;;;6.90;99.90;;;;;;5038898;28;20033;-79
2023/01/03 03:59:31;;;;;;;67.68;38.42;;;6.90;99.90;;;;;;5034228;28;20455;-80
2023/01/03 04:02:02;;;;;;;60.05;34.97;;;6.90;99.90;;;;;;5006888;28;20035;-81
2023/01/03 04:04:35;;;;;;;54.17;34.50;;;6.90;99.90;;;;;;5019574;28;20048;-80
2023/01/03 04:07:02;;;;;;;54.60;33.72;;;6.90;99.90;;;;;;5021801;28;20033;-80
2023/01/03 04:09:28;;;;;;;65.95;40.63;;;6.90;99.90;;;;;;5016950;28;20044;-78
2023/01/03 04:11:54;;;;;;;67.88;39.33;;;6.90;99.90;;;;;;5023968;28;20037;-82
2023/01/03 04:14:21;;;;;;;69.43;42.63;;;6.90;99.90;;;;;;5012886;28;20030;-80
2023/01/03 04:16:47;;;;;;;66.32;43.17;;;6.90;99.90;;;;;;5031572;28;20054;-79
2023/01/03 04:19:13;;;;;;;60.33;39.00;;;6.90;99.90;;;;;;5036999;28;20476;-80
2023/01/03 04:21:40;;;;;;;53.42;34.60;;;6.90;99.90;;;;;;5025039;28;20052;-81
2023/01/03 04:24:06;;;;;;;65.55;42.83;;;6.90;99.90;;;;;;5030748;28;20619;-83
2023/01/03 04:26:33;;;;;;;63.38;41.70;;;6.80;99.90;;;;;;5016043;28;20040;-78
2023/01/03 04:28:59;;;;;;;63.58;43.28;;;6.80;99.90;;;;;;5024274;28;20033;-81
2023/01/03 04:31:25;;;;;;;53.45;36.70;;;6.80;99.90;;;;;;5020749;28;20037;-83
2023/01/03 04:33:52;;;;;;;52.95;39.03;;;6.80;99.90;;;;;;5037084;28;20025;-83
2023/01/03 04:36:19;;;;;;;66.53;42.65;;;6.70;99.90;;;;;;5046464;28;20029;-78
2023/01/03 04:38:46;;;;;;;61.55;42.20;;;6.70;99.90;;;;;;5039104;28;20041;-81
2023/01/03 04:41:12;;;;;;;55.75;38.95;;;6.70;99.90;;;;;;5015313;28;21182;-83
2023/01/03 04:46:24;;;;;;;50.33;36.40;;;6.50;99.90;;;;;;5015518;28;20068;-82
2023/01/03 04:48:50;;;;;;;50.00;35.63;;;6.50;99.90;;;;;;5030328;28;20048;-80
2023/01/03 04:51:16;;;;;;;42.65;31.30;;;6.50;99.90;;;;;;5039208;28;20040;-82
2023/01/03 04:53:42;;;;;;;41.85;31.98;;;6.40;99.90;;;;;;5030947;28;20041;-83
2023/01/03 04:56:09;;;;;;;48.08;35.05;;;6.40;99.90;;;;;;5032188;28;20033;-79
2023/01/03 04:58:35;;;;;;;43.15;33.08;;;6.40;99.90;;;;;;5038213;28;20450;-81
2023/01/03 05:01:03;;;;;;;43.55;30.85;;;6.40;99.90;;;;;;5011036;28;20144;-79
2023/01/03 05:03:30;;;;;;;38.40;30.70;;;6.30;99.90;;;;;;5028095;28;20038;-82
2023/01/03 05:06:04;;;;;;;40.65;30.00;;;6.30;99.90;;;;;;5032407;28;20033;-82
2023/01/03 05:08:32;;;;;;;44.15;30.77;;;6.30;99.90;;;;;;5019801;28;20038;-77
2023/01/03 05:10:58;;;;;;;42.35;30.42;;;6.20;99.90;;;;;;5019334;28;20404;-82
2023/01/03 05:13:25;;;;;;;32.63;24.67;;;6.10;99.90;;;;;;5027881;28;20044;-81
2023/01/03 05:15:51;;;;;;;48.45;31.77;;;6.10;99.90;;;;;;5031804;28;20037;-82
2023/01/03 05:18:18;;;;;;;37.67;28.33;;;6.00;99.90;;;;;;5028120;28;20057;-79
2023/01/03 05:26:18;;;;;;;33.63;25.10;;;5.80;99.90;;;;;;5041633;28;20044;-81
2023/01/03 05:28:49;;;;;;;29.88;23.00;;;5.80;99.90;;;;;;5013571;28;20037;-81
2023/01/03 05:31:15;;;;;;;34.50;24.77;;;5.70;99.90;;;;;;5020202;28;20040;-81
2023/01/03 05:33:42;;;;;;;27.67;22.23;;;5.70;99.90;;;;;;5021711;28;20056;-82
2023/01/03 05:36:09;;;;;;;28.58;22.55;;;5.60;99.90;;;;;;5011096;28;20037;-78
2023/01/03 05:38:36;;;;;;;28.50;21.75;;;5.60;99.90;;;;;;4999323;28;20064;-81
2023/01/03 05:41:04;;;;;;;26.77;19.25;;;5.50;99.90;;;;;;5035790;28;20043;-79
2023/01/03 05:43:30;;;;;;;24.63;19.67;;;5.40;99.90;;;;;;5013044;28;20062;-80
2023/01/03 05:45:56;;;;;;;23.80;18.85;;;5.40;99.90;;;;;;5028463;28;20037;-80
2023/01/03 05:48:22;;;;;;;23.90;18.00;;;5.30;99.90;;;;;;5013440;28;20288;-81
2023/01/03 05:50:49;;;;;;;21.35;17.23;;;5.20;99.90;;;;;;5005103;28;20041;-83
2023/01/03 05:53:16;;;;;;;29.80;21.88;;;5.10;99.90;;;;;;5017919;28;20044;-80
2023/01/03 05:55:43;;;;;;;27.67;19.40;;;5.00;99.90;;;;;;5013014;28;20473;-80
2023/01/03 05:58:11;;;;;;;27.77;20.65;;;5.00;99.90;;;;;;5031461;28;20037;-80
2023/01/03 06:00:37;;;;;;;27.73;20.52;;;4.90;99.90;;;;;;5000042;28;20052;-79
2023/01/03 06:03:03;;;;;;;25.10;18.60;;;4.90;99.90;;;;;;5012677;28;20033;-79
2023/01/03 06:05:30;;;;;;;20.67;16.40;;;4.80;99.90;;;;;;5030799;28;20056;-80
2023/01/03 06:07:59;;;;;;;23.73;17.25;;;4.80;99.90;;;;;;5010789;28;20511;-78
2023/01/03 06:10:26;;;;;;;23.35;16.75;;;4.70;99.90;;;;;;5023548;28;20041;-75
2023/01/03 06:12:52;;;;;;;26.80;18.48;;;4.60;99.90;;;;;;5039638;28;20045;-79
2023/01/03 06:15:19;;;;;;;26.90;17.35;;;4.60;99.90;;;;;;5032376;28;20029;-81
2023/01/03 06:17:56;;;;;;;30.90;20.30;;;4.50;99.90;;;;;;5039908;28;20061;-80
2023/01/03 06:20:25;;;;;;;24.35;17.77;;;4.50;99.90;;;;;;5024088;28;20081;-80
2023/01/03 06:22:53;;;;;;;22.83;17.25;;;4.40;99.90;;;;;;5026014;28;20033;-79
2023/01/03 06:25:19;;;;;;;22.77;16.05;;;4.40;99.90;;;;;;5042940;28;20044;-80
2023/01/03 06:27:46;;;;;;;24.15;17.75;;;4.30;99.90;;;;;;5024721;28;20042;-80
2023/01/03 06:30:14;;;;;;;28.05;16.55;;;4.30;99.90;;;;;;4998582;28;20504;-75
2023/01/03 06:32:41;;;;;;;25.13;16.73;;;4.30;99.90;;;;;;5040608;28;20048;-76
2023/01/03 06:35:07;;;;;;;27.15;18.15;;;4.30;99.90;;;;;;5029448;28;20025;-79
2023/01/03 06:37:34;;;;;;;31.65;19.35;;;4.40;99.90;;;;;;5015578;28;20701;-80
2023/01/03 06:40:00;;;;;;;36.33;19.27;;;4.50;99.90;;;;;;5000865;28;20041;-81
2023/01/03 06:42:38;;;;;;;35.72;19.90;;;4.50;99.90;;;;;;5035397;28;20476;-78
2023/01/03 06:53:24;;;;;;;26.60;17.75;;;4.60;99.90;;;;;;5029686;28;20052;-80
2023/01/03 06:55:50;;;;;;;24.25;16.58;;;4.60;99.90;;;;;;5024492;28;20495;-81
2023/01/03 06:58:16;;;;;;;26.08;17.40;;;4.50;99.90;;;;;;5035259;28;20045;-81
2023/01/03 07:00:43;;;;;;;26.20;18.33;;;4.50;99.90;;;;;;5017626;28;20056;-80
2023/01/03 07:03:10;;;;;;;31.08;18.40;;;4.40;99.90;;;;;;5024786;28;20484;-80
2023/01/03 07:05:37;;;;;;;31.17;20.73;;;4.30;99.90;;;;;;5017606;28;20519;-81
2023/01/03 07:08:03;;;;;;;27.23;19.38;;;4.30;99.90;;;;;;5022229;28;20060;-80
2023/01/03 07:10:29;;;;;;;28.20;17.73;;;4.30;99.90;;;;;;5011432;28;20060;-77
2023/01/03 07:15:44;;;;;;;28.35;18.80;;;4.20;99.90;;;;;;5029486;28;20033;-80
2023/01/03 07:18:11;;;;;;;24.23;15.98;;;4.20;99.90;;;;;;5041015;28;20068;-78
2023/01/03 07:20:42;;;;;;;21.80;15.98;;;4.20;99.90;;;;;;5026831;28;20038;-78
2023/01/03 07:23:09;;;;;;;25.23;15.48;;;4.10;99.90;;;;;;5031118;28;20036;-80
2023/01/03 07:25:39;;;;;;;25.00;16.20;;;4.10;99.90;;;;;;5030427;28;20045;-78
2023/01/03 07:28:11;;;;;;;24.90;17.10;;;4.20;99.90;;;;;;5014154;28;20040;-79
2023/01/03 07:30:39;;;;;;;23.73;17.20;;;4.10;99.90;;;;;;5015016;28;20045;-80
2023/01/03 07:33:08;;;;;;;28.83;17.83;;;4.10;99.90;;;;;;5030943;28;20034;-82
2023/01/03 07:35:35;;;;;;;23.77;17.95;;;4.10;99.90;;;;;;5030678;28;20509;-79
2023/01/03 07:38:04;;;;;;;24.15;16.58;;;4.10;99.90;;;;;;5016676;28;20041;-81
2023/01/03 07:40:30;;;;;;;21.85;16.95;;;4.10;99.90;;;;;;5009871;28;20056;-78
2023/01/03 07:45:43;;;;;;;30.90;20.33;;;4.20;99.90;;;;;;5027561;28;20052;-78
2023/01/03 07:48:10;;;;;;;30.15;20.17;;;4.40;99.90;;;;;;5013362;28;20033;-81
2023/01/03 07:50:37;;;;;;;26.10;17.02;;;4.50;99.90;;;;;;5027745;28;20926;-76
2023/01/03 07:53:06;;;;;;;30.02;20.10;;;4.50;99.90;;;;;;5030885;28;20044;-81
2023/01/03 07:55:33;;;;;;;28.30;19.30;;;4.60;99.90;;;;;;5027836;28;20400;-82
2023/01/03 07:58:00;;;;;;;28.25;17.60;;;4.70;99.90;;;;;;5033673;28;20029;-81
2023/01/03 08:00:26;;;;;;;29.73;19.08;;;4.70;99.90;;;;;;5031333;28;20040;-79
2023/01/03 08:02:53;;;;;;;28.00;18.95;;;4.80;99.90;;;;;;4999196;28;20396;-80
2023/01/03 08:05:24;;;;;;;24.73;17.13;;;4.90;99.90;;;;;;5030083;28;20387;-78
2023/01/03 08:07:51;;;;;;;26.88;17.52;;;4.90;99.90;;;;;;5015713;28;20045;-82
2023/01/03 08:13:19;;;;;;;25.80;16.77;;;5.00;99.90;;;;;;5019663;28;20491;-80
2023/01/03 08:15:54;;;;;;;32.67;20.53;;;5.00;99.90;;;;;;5029935;28;20391;-79
2023/01/03 08:18:22;;;;;;;26.13;17.25;;;5.10;99.90;;;;;;5021297;28;20613;-80
2023/01/03 08:20:50;;;;;;;31.30;18.48;;;5.10;99.90;;;;;;5007535;28;20041;-82
2023/01/03 08:23:16;;;;;;;25.75;15.98;;;5.20;99.90;;;;;;5035456;28;20044;-79
2023/01/03 08:25:43;;;;;;;24.67;17.02;;;5.20;99.90;;;;;;5001604;28;20470;-81
2023/01/03 08:28:10;;;;;;;30.15;18.13;;;5.20;99.90;;;;;;5032110;28;20049;-79
2023/01/03 08:30:43;;;;;;;25.13;17.60;;;5.30;99.90;;;;;;5024053;28;20512;-77
2023/01/03 08:33:12;;;;;;;32.25;19.23;;;5.30;99.90;;;;;;5029952;28;20404;-82
2023/01/03 08:35:41;;;;;;;26.00;16.88;;;5.30;99.90;;;;;;5030159;28;20038;-80
2023/01/03 08:38:13;;;;;;;27.88;17.63;;;5.30;99.90;;;;;;5010577;28;20040;-82
2023/01/03 08:40:41;;;;;;;28.80;17.92;;;5.30;99.90;;;;;;5023302;28;20421;-79
2023/01/03 08:43:09;;;;;;;29.83;19.10;;;5.40;99.90;;;;;;5042528;28;20037;-82
2023/01/03 08:45:37;;;;;;;26.67;18.05;;;5.40;99.90;;;;;;5049224;28;20049;-81
2023/01/03 08:48:05;;;;;;;26.27;18.27;;;5.40;99.90;;;;;;4997877;28;20049;-81
2023/01/03 08:50:32;;;;;;;21.73;16.02;;;5.50;99.90;;;;;;5013761;28;21584;-75
2023/01/03 08:52:58;;;;;;;22.80;16.02;;;5.50;99.90;;;;;;5032140;28;20035;-81
2023/01/03 08:55:25;;;;;;;24.73;14.95;;;5.60;99.90;;;;;;5027819;28;20025;-86
2023/01/03 08:57:51;;;;;;;24.30;17.10;;;5.60;99.90;;;;;;5039490;28;20123;-85
2023/01/03 09:00:18;;;;;;;22.70;15.98;;;5.70;99.90;;;;;;5008062;28;20045;-82
2023/01/03 09:02:44;;;;;;;23.17;15.18;;;5.70;99.90;;;;;;5014416;28;20037;-84
2023/01/03 09:05:10;;;;;;;24.67;16.38;;;5.70;99.90;;;;;;5010531;28;20052;-86
2023/01/03 09:07:36;;;;;;;23.20;15.90;;;5.80;99.90;;;;;;5028960;28;20041;-85
2023/01/03 09:10:03;;;;;;;21.58;15.27;;;5.80;99.90;;;;;;5027361;28;20523;-80
2023/01/03 09:12:29;;;;;;;20.75;13.95;;;5.80;99.90;;;;;;5010038;28;20064;-82
2023/01/03 09:14:56;;;;;;;26.02;18.00;;;5.90;99.90;;;;;;5037689;28;20037;-83
2023/01/03 09:17:23;;;;;;;24.50;16.20;;;5.90;99.90;;;;;;5005115;28;20428;-82
2023/01/03 09:19:49;;;;;;;24.35;16.15;;;5.90;99.90;;;;;;5034727;28;20641;-78
2023/01/03 09:22:15;;;;;;;24.40;14.60;;;6.00;99.90;;;;;;5024686;28;20037;-83
2023/01/03 09:24:42;;;;;;;30.30;21.30;;;6.00;99.90;;;;;;5008675;28;20101;-84
2023/01/03 09:27:08;;;;;;;27.13;18.67;;;6.10;99.90;;;;;;5027364;28;20428;-91
2023/01/03 09:29:34;;;;;;;24.38;17.02;;;6.10;99.90;;;;;;5033831;28;20373;-87
2023/01/03 09:32:02;;;;;;;31.52;15.80;;;6.20;99.90;;;;;;5012246;28;20036;-83
2023/01/03 09:34:28;;;;;;;26.00;16.73;;;6.20;99.90;;;;;;5024407;28;20046;-85
2023/01/03 09:36:55;;;;;;;25.05;15.90;;;6.30;99.90;;;;;;5004833;28;20037;-84
2023/01/03 09:39:21;;;;;;;25.27;15.07;;;6.40;99.90;;;;;;5038562;28;20029;-83
2023/01/03 09:43:11;;;;;;;19.55;14.38;;;6.50;99.90;;;;;;5023284;28;20029;-86
2023/01/03 09:44:39;;;;;;;25.75;16.75;;;6.50;99.90;;;;;;5040221;28;20052;-87
2023/01/03 09:47:05;;;;;;;24.70;15.43;;;6.60;99.90;;;;;;5011241;28;20038;-90
2023/01/03 09:49:37;;;;;;;31.05;17.20;;;6.70;99.90;;;;;;5033211;28;20033;-86
2023/01/03 10:03:43;;;;;;;29.88;17.40;;;6.80;99.90;;;;;;5035607;28;20515;-79
2023/01/03 10:06:31;;;;;;;29.42;18.02;;;6.90;99.90;;;;;;5015338;28;20037;-85
2023/01/03 10:09:16;;;;;;;32.90;16.27;;;6.90;99.90;;;;;;5031217;28;20052;-84
2023/01/03 10:12:23;;;;;;;25.30;15.50;;;6.90;99.90;;;;;;5045025;28;20040;-81
2023/01/03 10:14:53;;;;;;;26.15;16.13;;;7.00;99.90;;;;;;4964105;28;20046;-84
2023/01/03 10:17:34;;;;;;;32.50;17.98;;;7.00;99.90;;;;;;5019277;28;20042;-86
2023/01/03 10:20:25;;;;;;;25.77;16.10;;;7.10;99.90;;;;;;5014241;28;20037;-82
2023/01/03 10:22:54;;;;;;;28.55;17.45;;;7.10;99.90;;;;;;5017437;28;20512;-83
2023/01/03 10:25:22;;;;;;;22.65;16.55;;;7.10;99.90;;;;;;5009361;28;20064;-85
2023/01/03 10:27:50;;;;;;;30.05;17.77;;;7.20;99.90;;;;;;5033016;28;20068;-83
2023/01/03 10:30:23;;;;;;;25.98;17.23;;;7.20;99.90;;;;;;5006003;28;20034;-79
2023/01/03 10:33:00;;;;;;;23.08;15.38;;;7.30;99.90;;;;;;5015187;28;20401;-85
2023/01/03 10:35:32;;;;;;;24.88;16.10;;;7.40;99.90;;;;;;5013092;28;20033;-85
2023/01/03 10:37:59;;;;;;;32.53;17.15;;;7.40;99.90;;;;;;5017531;28;20033;-84
2023/01/03 10:40:48;;;;;;;28.42;16.27;;;7.40;99.90;;;;;;5019595;28;20041;-85
2023/01/03 10:43:24;;;;;;;23.80;16.25;;;7.40;99.90;;;;;;5009294;28;20060;-86
2023/01/03 10:46:02;;;;;;;26.58;17.02;;;7.40;99.90;;;;;;5017311;28;20817;-80
2023/01/03 10:48:40;;;;;;;29.95;18.25;;;7.50;99.90;;;;;;5032330;28;20048;-85
2023/01/03 10:51:25;;;;;;;22.42;15.18;;;7.50;99.90;;;;;;5015596;28;20044;-86
2023/01/03 10:53:54;;;;;;;29.50;17.08;;;7.50;99.90;;;;;;5000336;28;20037;-82
2023/01/03 10:56:22;;;;;;;26.98;16.45;;;7.50;99.90;;;;;;5029711;28;20067;-83
2023/01/03 10:59:08;;;;;;;31.63;18.35;;;7.60;99.90;;;;;;5026033;28;20049;-85
2023/01/03 11:01:35;;;;;;;36.95;24.50;;;7.60;99.90;;;;;;5020703;28;20037;-81
2023/01/03 11:04:17;;;;;;;28.40;17.77;;;7.70;99.90;;;;;;4997885;28;20056;-84
2023/01/03 11:07:03;;;;;;;27.67;17.38;;;7.70;99.90;;;;;;5008746;28;20044;-85
2023/01/03 11:09:40;;;;;;;28.42;16.67;;;7.70;99.90;;;;;;5001063;28;20042;-82
2023/01/03 11:12:23;;;;;;;23.25;15.13;;;7.70;99.90;;;;;;5009545;28;20061;-82
2023/01/03 11:14:51;;;;;;;;;;;7.70;99.90;;;;;;5019867;28;20543;-84
2023/01/03 11:17:20;;;;;;;22.65;13.85;;;7.70;99.90;;;;;;5012277;28;19925;-84
2023/01/03 11:19:47;;;;;;;23.35;14.63;;;7.80;99.90;;;;;;5025955;28;20041;-80
2023/01/03 11:22:36;;;;;;;22.27;14.40;;;7.80;99.90;;;;;;5011757;28;20496;-83
2023/01/03 11:25:18;;;;;;;27.20;17.13;;;7.90;99.90;;;;;;5029119;28;20044;-79
2023/01/03 11:27:51;;;;;;;22.02;14.23;;;7.90;99.90;;;;;;5014893;28;20395;-82
2023/01/03 11:30:43;;;;;;;24.73;15.68;;;7.90;99.90;;;;;;5026047;28;20052;-82
2023/01/03 11:33:27;;;;;;;18.00;12.25;;;7.90;99.90;;;;;;5029119;28;20415;-77
2023/01/03 11:35:56;;;;;;;20.02;12.88;;;7.90;99.90;;;;;;5032104;28;20041;-84
2023/01/03 11:39:08;;;;;;;20.45;13.13;;;7.90;99.90;;;;;;5033827;28;20040;-83
2023/01/03 11:42:02;;;;;;;22.30;14.40;;;8.00;99.90;;;;;;4971196;28;20544;-79
2023/01/03 11:44:47;;;;;;;28.00;15.45;;;8.00;99.90;;;;;;5029376;28;20040;-84
2023/01/03 11:47:13;;;;;;;24.15;14.25;;;8.00;99.90;;;;;;5015766;28;20045;-84
2023/01/03 11:49:59;;;;;;;21.17;13.30;;;8.00;99.90;;;;;;5032674;28;20550;-83
2023/01/03 11:52:37;;;;;;;18.35;12.45;;;8.00;99.90;;;;;;5025536;28;20041;-84
2023/01/03 11:55:16;;;;;;;24.48;15.98;;;8.00;99.90;;;;;;5012511;28;20523;-82
2023/01/03 11:57:48;;;;;;;29.52;15.80;;;8.00;99.90;;;;;;5034418;28;20049;-83
2023/01/03 12:00:28;;;;;;;22.60;14.18;;;8.00;99.90;;;;;;5037034;28;20056;-80
2023/01/03 12:03:27;;;;;;;22.33;14.23;;;8.00;99.90;;;;;;5021153;28;20037;-83
2023/01/03 12:06:12;;;;;;;20.40;13.57;;;8.00;99.90;;;;;;5000413;28;20061;-84
2023/01/03 12:08:57;;;;;;;17.13;11.45;;;8.00;99.90;;;;;;5037137;28;20037;-81
2023/01/03 12:11:48;;;;;;;19.40;11.75;;;8.00;99.90;;;;;;5022828;28;20047;-80
2023/01/03 12:14:28;;;;;;;19.00;11.55;;;8.00;99.90;;;;;;5029107;28;20488;-83
2023/01/03 12:17:10;;;;;;;20.08;12.75;;;8.00;99.90;;;;;;5037328;28;20060;-83
2023/01/03 12:20:14;;;;;;;19.25;12.10;;;8.00;99.90;;;;;;5026826;28;20041;-83
2023/01/03 12:22:46;;;;;;;18.55;11.98;;;8.00;99.90;;;;;;5010927;28;20379;-84
2023/01/03 12:25:34;;;;;;;16.70;11.45;;;8.10;99.90;;;;;;5034912;28;20029;-83
2023/01/03 12:28:09;;;;;;;14.68;10.43;;;8.10;99.90;;;;;;5037772;28;20045;-85
2023/01/03 12:31:08;;;;;;;19.60;11.50;;;8.10;99.90;;;;;;5012011;28;20045;-80
2023/01/03 12:33:43;;;;;;;14.65;10.98;;;8.20;99.90;;;;;;4996550;28;20049;-84
2023/01/03 12:36:47;;;;;;;18.05;10.43;;;8.20;99.90;;;;;;5035283;28;20037;-85
2023/01/03 12:39:26;;;;;;;13.95;9.02;;;8.20;99.90;;;;;;5029206;28;20037;-83
2023/01/03 12:42:14;;;;;;;14.52;9.60;;;8.20;99.90;;;;;;5030646;28;20033;-83
2023/01/03 12:44:44;;;;;;;12.43;7.97;;;8.20;99.90;;;;;;5008529;28;20393;-83
2023/01/03 12:47:29;;;;;;;14.65;9.38;;;8.20;99.90;;;;;;5035128;28;20039;-81
2023/01/03 12:50:06;;;;;;;15.45;9.85;;;8.30;99.90;;;;;;5026425;28;20033;-82
2023/01/03 12:52:36;;;;;;;12.23;8.20;;;8.30;99.90;;;;;;5028170;28;20049;-80
2023/01/03 12:55:25;;;;;;;19.65;11.75;;;8.30;99.90;;;;;;5032280;28;20030;-80
2023/01/03 12:58:03;;;;;;;15.80;11.85;;;8.30;99.90;;;;;;5012899;28;20127;-81
2023/01/03 13:00:59;;;;;;;16.40;11.90;;;8.30;99.90;;;;;;4996307;28;20041;-80
2023/01/03 13:03:25;;;;;;;17.42;11.48;;;8.40;99.90;;;;;;5036203;28;20033;-83
2023/01/03 13:06:13;;;;;;;15.48;10.98;;;8.30;99.90;;;;;;5010341;28;20052;-80
2023/01/03 13:09:00;;;;;;;17.73;11.70;;;8.40;99.90;;;;;;5029294;28;20033;-81
2023/01/03 13:11:36;;;;;;;14.55;10.85;;;8.40;99.90;;;;;;5033477;28;20033;-82
2023/01/03 13:14:14;;;;;;;17.00;11.20;;;8.40;99.90;;;;;;4998466;28;20040;-81
2023/01/03 13:16:43;;;;;;;17.75;10.73;;;8.50;99.90;;;;;;5029181;28;20060;-83
2023/01/03 13:19:18;;;;;;;13.88;9.45;;;8.50;99.90;;;;;;5033184;28;20500;-81
2023/01/03 13:21:54;;;;;;;14.88;10.23;;;8.60;99.90;;;;;;5002811;28;20048;-83
2023/01/03 13:24:39;;;;;;;19.02;10.18;;;8.60;99.90;;;;;;5029218;28;20029;-84
2023/01/03 13:29:57;;;;;;;18.27;12.75;;;8.70;99.90;;;;;;5017740;28;20485;-85
2023/01/03 13:32:27;;;;;;;13.82;9.85;;;8.70;99.90;;;;;;5010701;28;20060;-79
2023/01/03 13:34:57;;;;;;;15.93;10.27;;;8.70;99.90;;;;;;5034797;28;20057;-84
2023/01/03 13:37:30;;;;;;;18.25;11.52;;;8.70;99.90;;;;;;5011480;28;20507;-79
2023/01/03 13:40:02;;;;;;;14.77;10.02;;;8.70;99.90;;;;;;5040262;28;20041;-82
2023/01/03 13:42:33;;;;;;;13.23;9.27;;;8.70;99.90;;;;;;5009635;28;20442;-81
2023/01/03 13:45:14;;;;;;;11.90;8.27;;;8.60;99.90;;;;;;5037590;28;20793;-79
2023/01/03 13:47:46;;;;;;;13.10;8.15;;;8.60;99.90;;;;;;5009667;28;20049;-84
2023/01/03 13:50:28;;;;;;;11.68;6.68;;;8.60;99.90;;;;;;5027992;28;20033;-79
2023/01/03 13:53:03;;;;;;;12.10;7.05;;;8.60;99.90;;;;;;5017272;28;20542;-82
2023/01/03 13:55:46;;;;;;;10.48;5.68;;;8.60;99.90;;;;;;5043496;28;20038;-82
2023/01/03 13:58:39;;;;;;;9.85;5.80;;;8.60;99.90;;;;;;5030770;28;20044;-82
2023/01/03 14:01:36;;;;;;;8.98;5.07;;;8.60;99.90;;;;;;5023251;28;20416;-82
2023/01/03 14:04:43;;;;;;;7.75;5.13;;;8.60;99.90;;;;;;5028143;28;20036;-80
2023/01/03 14:07:40;;;;;;;9.40;4.70;;;8.60;99.90;;;;;;5030395;28;20037;-81
2023/01/03 14:10:16;;;;;;;8.65;4.97;;;8.60;99.90;;;;;;5016740;28;20416;-82
2023/01/03 14:13:03;;;;;;;12.02;5.47;;;8.70;99.90;;;;;;5036200;28;20037;-82